createdAt,value
2023-05-06T00:00:34.627Z,60.63
2023-05-06T00:03:02.689Z,60.53
2023-05-06T00:05:30.570Z,60.60
2023-05-06T00:07:59.907Z,60.95
2023-05-06T00:10:27.734Z,60.51
2023-05-06T00:12:55.605Z,61.31
2023-05-06T00:15:24.067Z,61.03
2023-05-06T00:17:51.977Z,61.06
2023-05-06T00:20:19.851Z,61.08
2023-05-06T00:22:47.862Z,61.22
2023-05-06T00:25:17.064Z,61.52
2023-05-06T00:27:44.873Z,61.86
2023-05-06T00:30:13.821Z,61.80
2023-05-06T00:32:41.661Z,62.03
2023-05-06T00:35:10.543Z,61.98
2023-05-06T00:37:38.706Z,62.05
2023-05-06T00:40:09.907Z,62.09
2023-05-06T00:42:39.423Z,62.22
2023-05-06T00:45:08.504Z,61.78
2023-05-06T00:47:36.854Z,62.53
2023-05-06T00:50:05.443Z,62.66
2023-05-06T00:52:33.453Z,62.48
2023-05-06T00:55:01.341Z,62.63
2023-05-06T00:57:29.438Z,62.40
2023-05-06T00:59:58.653Z,62.43
2023-05-06T01:02:36.203Z,62.21
2023-05-06T01:05:12.523Z,63.02
2023-05-06T01:07:46.085Z,63.04
2023-05-06T01:10:22.492Z,63.15
2023-05-06T01:12:59.964Z,63.21
2023-05-06T01:15:35.379Z,63.11
2023-05-06T01:18:09.621Z,63.08
2023-05-06T01:20:38.968Z,63.61
2023-05-06T01:23:13.202Z,63.61
2023-05-06T01:25:41.784Z,63.89
2023-05-06T01:28:11.722Z,63.68
2023-05-06T01:30:46.253Z,63.88
2023-05-06T01:33:20.207Z,64.02
2023-05-06T01:35:56.119Z,64.58
2023-05-06T01:38:32.389Z,64.45
2023-05-06T01:41:03.228Z,64.58
2023-05-06T01:43:36.029Z,65.20
2023-05-06T01:46:04.729Z,65.82
2023-05-06T01:48:37.799Z,65.98
2023-05-06T01:51:06.133Z,65.90
2023-05-06T01:53:35.842Z,66.50
2023-05-06T01:56:03.948Z,66.29
2023-05-06T01:58:32.008Z,66.89
2023-05-06T02:00:59.953Z,67.33
2023-05-06T02:03:28.223Z,67.13
2023-05-06T02:05:56.750Z,67.67
2023-05-06T02:08:24.617Z,67.50
2023-05-06T02:10:53.839Z,67.91
2023-05-06T02:13:21.987Z,68.03
2023-05-06T02:15:53.760Z,68.15
2023-05-06T02:18:21.688Z,68.54
2023-05-06T02:20:49.652Z,68.99
2023-05-06T02:23:17.641Z,68.91
2023-05-06T02:25:45.624Z,69.00
2023-05-06T02:28:15.042Z,69.15
2023-05-06T02:30:42.869Z,69.70
2023-05-06T02:33:10.692Z,69.98
2023-05-06T02:35:39.026Z,69.79
2023-05-06T02:38:06.850Z,70.00
2023-05-06T02:40:34.718Z,70.39
2023-05-06T02:43:02.844Z,70.70
2023-05-06T02:45:32.215Z,70.75
2023-05-06T02:48:00.221Z,70.76
2023-05-06T02:50:28.370Z,71.29
2023-05-06T02:52:56.241Z,71.27
2023-05-06T02:55:24.108Z,71.62
2023-05-06T02:57:52.115Z,72.17
2023-05-06T03:00:20.408Z,72.34
2023-05-06T03:02:49.666Z,72.27
2023-05-06T03:05:17.790Z,72.41
2023-05-06T03:07:45.596Z,72.63
2023-05-06T03:10:13.542Z,72.55
2023-05-06T03:12:41.606Z,73.09
2023-05-06T03:15:10.523Z,73.41
2023-05-06T03:17:38.705Z,73.76
2023-05-06T03:20:10.282Z,74.14
2023-05-06T03:22:38.097Z,74.13
2023-05-06T03:25:06.902Z,73.99
2023-05-06T03:27:35.088Z,74.86
2023-05-06T03:30:02.930Z,74.72
2023-05-06T03:32:33.308Z,74.83
2023-05-06T03:35:01.343Z,74.45
2023-05-06T03:37:30.906Z,74.81
2023-05-06T03:39:58.753Z,75.49
2023-05-06T03:42:27.216Z,75.26
2023-05-06T03:44:55.088Z,75.49
2023-05-06T03:47:22.991Z,76.04
2023-05-06T03:49:51.340Z,76.43
2023-05-06T03:52:19.560Z,76.11
2023-05-06T03:54:48.803Z,76.75
2023-05-06T03:57:17.124Z,76.40
2023-05-06T03:59:44.958Z,76.68
2023-05-06T04:02:12.948Z,77.11
2023-05-06T04:04:41.060Z,76.83
2023-05-06T04:07:09.119Z,77.71
2023-05-06T04:09:37.014Z,77.56
2023-05-06T04:12:07.107Z,77.80
2023-05-06T04:14:34.951Z,78.12
2023-05-06T04:17:02.856Z,77.96
2023-05-06T04:19:32.235Z,78.27
2023-05-06T04:22:00.062Z,78.67
2023-05-06T04:24:29.531Z,78.56
2023-05-06T04:26:57.476Z,78.82
2023-05-06T04:29:27.111Z,78.62
2023-05-06T04:31:55.532Z,78.66
2023-05-06T04:34:25.242Z,79.20
2023-05-06T04:36:54.237Z,79.21
2023-05-06T04:39:22.145Z,78.78
2023-05-06T04:41:50.091Z,79.57
2023-05-06T04:44:19.522Z,79.17
2023-05-06T04:46:48.835Z,78.62
2023-05-06T04:49:16.820Z,78.94
2023-05-06T04:51:44.646Z,79.01
2023-05-06T04:54:12.506Z,78.29
2023-05-06T04:56:40.480Z,79.09
2023-05-06T04:59:08.317Z,78.09
2023-05-06T05:01:36.278Z,78.02
2023-05-06T05:04:06.958Z,78.45
2023-05-06T05:06:34.812Z,77.90
2023-05-06T05:09:02.721Z,77.64
2023-05-06T05:11:30.850Z,77.20
2023-05-06T05:14:00.912Z,76.91
2023-05-06T05:16:29.951Z,76.84
2023-05-06T05:18:58.129Z,75.26
2023-05-06T05:21:27.725Z,74.26
2023-05-06T05:23:55.611Z,73.59
2023-05-06T05:26:23.634Z,73.18
2023-05-06T05:28:51.480Z,72.08
2023-05-06T05:31:19.364Z,71.41
2023-05-06T05:33:47.588Z,70.70
2023-05-06T05:36:16.373Z,69.55
2023-05-06T05:38:45.611Z,67.64
2023-05-06T05:41:14.945Z,67.15
2023-05-06T05:43:44.771Z,65.43
2023-05-06T05:46:12.655Z,64.30
2023-05-06T05:48:40.949Z,63.59
2023-05-06T05:51:08.786Z,62.08
2023-05-06T05:53:36.653Z,61.88
2023-05-06T05:56:06.843Z,60.68
2023-05-06T05:58:35.233Z,60.21
2023-05-06T06:01:04.238Z,60.19
2023-05-06T06:03:39.234Z,59.70
2023-05-06T06:06:07.588Z,59.26
2023-05-06T06:08:35.548Z,58.59
2023-05-06T06:11:06.912Z,58.67
2023-05-06T06:13:34.761Z,58.09
2023-05-06T06:16:02.697Z,57.77
2023-05-06T06:18:30.821Z,57.39
2023-05-06T06:20:58.750Z,57.21
2023-05-06T06:23:26.616Z,56.86
2023-05-06T06:25:54.802Z,56.33
2023-05-06T06:28:24.118Z,55.31
2023-05-06T06:30:51.934Z,55.11
2023-05-06T06:33:19.906Z,55.13
2023-05-06T06:35:47.985Z,54.89
2023-05-06T06:38:15.841Z,55.12
2023-05-06T06:40:43.837Z,54.97
2023-05-06T06:43:11.787Z,54.62
2023-05-06T06:45:40.982Z,54.30
2023-05-06T06:48:09.057Z,54.10
2023-05-06T06:50:36.903Z,53.46
2023-05-06T06:53:06.249Z,53.30
2023-05-06T06:55:34.545Z,53.27
2023-05-06T06:58:02.434Z,53.18
2023-05-06T07:00:30.318Z,53.05
2023-05-06T07:02:59.682Z,52.91
2023-05-06T07:05:28.051Z,52.98
2023-05-06T07:07:55.956Z,51.32
2023-05-06T07:10:24.039Z,50.67
2023-05-06T07:12:51.977Z,50.52
2023-05-06T07:15:19.987Z,50.53
2023-05-06T07:17:48.474Z,52.17
2023-05-06T07:20:18.040Z,52.22
2023-05-06T07:22:45.958Z,51.44
2023-05-06T07:25:14.255Z,50.58
2023-05-06T07:27:42.120Z,49.59
2023-05-06T07:30:10.724Z,49.34
2023-05-06T07:32:38.706Z,47.55
2023-05-06T07:35:07.018Z,46.59
2023-05-06T07:37:36.274Z,45.15
2023-05-06T07:40:04.960Z,45.06
2023-05-06T07:42:32.876Z,44.07
2023-05-06T07:45:00.737Z,42.98
2023-05-06T07:47:31.477Z,41.54
2023-05-06T07:50:00.362Z,39.90
2023-05-06T07:52:28.260Z,40.50
2023-05-06T07:54:57.898Z,39.85
2023-05-06T07:57:25.773Z,40.17
2023-05-06T07:59:54.253Z,39.21
2023-05-06T08:02:22.530Z,38.82
2023-05-06T08:04:51.877Z,37.72
2023-05-06T08:07:20.032Z,37.77
2023-05-06T08:09:48.114Z,37.54
2023-05-06T08:12:17.651Z,36.20
2023-05-06T08:14:45.627Z,35.63
2023-05-06T08:17:14.229Z,34.79
2023-05-06T08:19:42.133Z,35.42
2023-05-06T08:22:10.012Z,35.70
2023-05-06T08:24:38.210Z,35.84
2023-05-06T08:27:06.096Z,35.44
2023-05-06T08:29:35.453Z,34.52
2023-05-06T08:32:03.421Z,34.15
2023-05-06T08:34:31.622Z,33.50
2023-05-06T08:36:59.540Z,32.50
2023-05-06T08:39:27.951Z,33.15
2023-05-06T08:41:57.483Z,32.92
2023-05-06T08:44:26.826Z,33.35
2023-05-06T08:46:56.472Z,32.38
2023-05-06T08:49:24.679Z,32.37
2023-05-06T08:51:53.476Z,32.39
2023-05-06T08:54:24.436Z,31.98
2023-05-06T08:56:54.916Z,30.99
2023-05-06T08:59:25.687Z,30.78
2023-05-06T09:01:55.183Z,30.78
2023-05-06T09:04:23.155Z,30.45
2023-05-06T09:06:51.105Z,30.14
2023-05-06T09:09:19.117Z,29.72
2023-05-06T09:11:54.102Z,29.34
2023-05-06T09:14:22.988Z,29.61
2023-05-06T09:16:52.742Z,29.21
2023-05-06T09:19:23.449Z,29.04
2023-05-06T09:21:52.696Z,29.61
2023-05-06T09:24:21.925Z,29.08
2023-05-06T09:26:50.620Z,28.59
2023-05-06T09:29:18.623Z,28.82
2023-05-06T09:31:47.782Z,28.96
2023-05-06T09:34:17.659Z,28.72
2023-05-06T09:36:46.858Z,27.85
2023-05-06T09:39:14.702Z,28.83
2023-05-06T09:41:44.351Z,28.47
2023-05-06T09:44:12.786Z,27.96
2023-05-06T09:46:41.241Z,28.37
2023-05-06T09:49:10.415Z,28.39
2023-05-06T09:51:38.779Z,28.45
2023-05-06T09:54:08.688Z,28.54
2023-05-06T09:56:37.424Z,28.37
2023-05-06T09:59:06.341Z,28.45
2023-05-06T10:01:37.531Z,28.12
2023-05-06T10:04:10.012Z,27.88
2023-05-06T10:06:40.733Z,27.20
2023-05-06T10:09:10.704Z,27.30
2023-05-06T10:11:39.833Z,27.39
2023-05-06T10:14:09.273Z,27.16
2023-05-06T10:16:40.284Z,26.41
2023-05-06T10:19:09.587Z,26.44
2023-05-06T10:21:40.884Z,26.23
2023-05-06T10:24:14.578Z,26.18
2023-05-06T10:26:46.705Z,26.43
2023-05-06T10:29:15.106Z,26.65
2023-05-06T10:31:49.896Z,26.22
2023-05-06T10:34:21.146Z,26.25
2023-05-06T10:36:52.121Z,25.95
2023-05-06T10:39:22.253Z,25.82
2023-05-06T10:41:50.631Z,25.90
2023-05-06T10:44:18.691Z,26.19
2023-05-06T10:46:59.054Z,25.46
2023-05-06T10:49:27.236Z,26.04
2023-05-06T10:52:14.597Z,25.15
2023-05-06T10:54:51.915Z,25.89
2023-05-06T10:57:20.905Z,26.60
2023-05-06T10:59:49.790Z,26.78
2023-05-06T11:02:20.386Z,26.59
2023-05-06T11:04:53.231Z,26.44
2023-05-06T11:07:25.535Z,26.58
2023-05-06T11:09:59.384Z,27.09
2023-05-06T11:12:51.420Z,27.18
2023-05-06T11:15:26.176Z,27.37
2023-05-06T11:17:56.461Z,27.27
2023-05-06T11:20:26.004Z,27.20
2023-05-06T11:22:54.400Z,27.28
2023-05-06T11:25:42.536Z,26.87
2023-05-06T11:28:11.961Z,27.25
2023-05-06T11:30:42.552Z,26.98
2023-05-06T11:33:15.705Z,26.93
2023-05-06T11:35:43.708Z,26.87
2023-05-06T11:38:11.623Z,26.92
2023-05-06T11:40:42.207Z,27.00
2023-05-06T11:43:14.322Z,27.76
2023-05-06T11:45:45.030Z,27.86
2023-05-06T11:48:13.738Z,27.51
2023-05-06T11:50:46.192Z,27.47
2023-05-06T11:53:16.033Z,27.30
2023-05-06T11:55:45.965Z,27.20
2023-05-06T11:58:16.608Z,27.31
2023-05-06T12:00:51.395Z,28.04
2023-05-06T12:03:20.111Z,28.14
2023-05-06T12:05:48.993Z,28.83
2023-05-06T12:08:26.881Z,28.74
2023-05-06T12:11:00.875Z,28.39
2023-05-06T12:13:29.625Z,28.43
2023-05-06T12:16:00.463Z,28.43
2023-05-06T12:18:29.212Z,28.35
2023-05-06T12:20:57.808Z,28.07
2023-05-06T12:23:25.809Z,27.96
2023-05-06T12:26:04.221Z,27.62
2023-05-06T12:28:33.562Z,27.58
2023-05-06T12:31:02.058Z,27.72
2023-05-06T12:33:44.847Z,27.32
2023-05-06T12:36:13.304Z,27.62
2023-05-06T12:38:51.372Z,27.38
2023-05-06T12:41:21.330Z,28.05
2023-05-06T12:43:49.290Z,28.35
2023-05-06T12:46:18.148Z,27.88
2023-05-06T12:48:58.118Z,27.38
2023-05-06T12:51:26.913Z,27.58
2023-05-06T12:53:55.145Z,27.43
2023-05-06T12:56:24.618Z,26.78
2023-05-06T12:59:03.374Z,26.39
2023-05-06T13:01:31.715Z,26.54
2023-05-06T13:03:59.799Z,26.17
2023-05-06T13:06:27.983Z,26.18
2023-05-06T13:08:55.968Z,26.51
2023-05-06T13:11:25.880Z,26.71
2023-05-06T13:13:53.899Z,26.58
2023-05-06T13:16:21.779Z,26.66
2023-05-06T13:18:50.584Z,26.85
2023-05-06T13:21:18.628Z,26.56
2023-05-06T13:23:48.069Z,26.20
2023-05-06T13:26:16.050Z,26.08
2023-05-06T13:28:45.610Z,25.55
2023-05-06T13:31:13.517Z,25.45
2023-05-06T13:33:41.560Z,25.37
2023-05-06T13:36:10.014Z,25.09
2023-05-06T13:38:37.843Z,25.30
2023-05-06T13:41:06.974Z,25.16
2023-05-06T13:43:34.864Z,25.17
2023-05-06T13:46:04.099Z,24.68
2023-05-06T13:48:32.081Z,23.97
2023-05-06T13:51:00.028Z,24.57
2023-05-06T13:53:27.897Z,24.89
2023-05-06T13:55:55.863Z,25.15
2023-05-06T13:58:23.876Z,24.94
2023-05-06T14:00:51.792Z,24.60
2023-05-06T14:03:21.096Z,23.94
2023-05-06T14:05:49.209Z,24.07
2023-05-06T14:08:18.088Z,24.14
2023-05-06T14:10:46.191Z,24.01
2023-05-06T14:13:14.331Z,23.57
2023-05-06T14:15:42.256Z,23.63
2023-05-06T14:18:10.217Z,23.62
2023-05-06T14:20:39.568Z,22.79
2023-05-06T14:23:07.611Z,22.79
2023-05-06T14:25:35.647Z,23.01
2023-05-06T14:28:03.558Z,23.65
2023-05-06T14:30:32.404Z,23.45
2023-05-06T14:33:01.522Z,23.05
2023-05-06T14:35:29.483Z,23.25
2023-05-06T14:37:58.717Z,23.12
2023-05-06T14:40:26.768Z,22.98
2023-05-06T14:42:55.228Z,22.50
2023-05-06T14:45:23.052Z,22.22
2023-05-06T14:47:51.743Z,22.33
2023-05-06T14:50:19.765Z,22.57
2023-05-06T14:52:48.257Z,22.83
2023-05-06T14:55:17.664Z,23.02
2023-05-06T14:57:47.036Z,23.23
2023-05-06T15:00:16.016Z,23.18
2023-05-06T15:02:44.150Z,23.07
2023-05-06T15:05:13.383Z,23.33
2023-05-06T15:07:41.781Z,23.43
2023-05-06T15:10:10.208Z,23.50
2023-05-06T15:12:40.210Z,23.51
2023-05-06T15:15:09.679Z,23.60
2023-05-06T15:17:39.482Z,24.08
2023-05-06T15:20:09.213Z,24.09
2023-05-06T15:22:39.362Z,23.88
2023-05-06T15:25:12.416Z,24.06
2023-05-06T15:27:46.145Z,24.12
2023-05-06T15:30:14.633Z,23.84
2023-05-06T15:32:42.532Z,23.57
2023-05-06T15:35:10.925Z,23.60
2023-05-06T15:37:39.121Z,23.72
2023-05-06T15:40:10.365Z,24.00
2023-05-06T15:42:39.340Z,24.59
2023-05-06T15:45:09.724Z,25.16
2023-05-06T15:47:37.556Z,25.71
2023-05-06T15:50:16.433Z,26.08
2023-05-06T15:52:53.075Z,26.49
2023-05-06T15:55:21.300Z,27.06
2023-05-06T15:57:49.242Z,26.97
2023-05-06T16:00:18.895Z,26.55
2023-05-06T16:02:47.062Z,26.63
2023-05-06T16:05:15.018Z,27.13
2023-05-06T16:07:43.033Z,27.18
2023-05-06T16:10:11.322Z,27.33
2023-05-06T16:12:39.413Z,27.37
2023-05-06T16:15:08.509Z,27.46
2023-05-06T16:17:38.749Z,27.32
2023-05-06T16:20:09.369Z,27.52
2023-05-06T16:22:40.203Z,27.74
2023-05-06T16:25:08.951Z,27.80
2023-05-06T16:27:36.799Z,28.04
2023-05-06T16:30:05.296Z,28.36
2023-05-06T16:32:33.166Z,28.49
2023-05-06T16:35:02.425Z,28.55
2023-05-06T16:37:30.427Z,29.07
2023-05-06T16:39:58.257Z,29.46
2023-05-06T16:42:26.123Z,29.42
2023-05-06T16:44:54.302Z,29.80
2023-05-06T16:47:24.315Z,30.57
2023-05-06T16:49:52.328Z,30.60
2023-05-06T16:52:22.056Z,31.25
2023-05-06T16:54:51.304Z,31.29
2023-05-06T16:57:19.689Z,31.79
2023-05-06T16:59:47.859Z,32.14
2023-05-06T17:02:15.704Z,32.25
2023-05-06T17:04:43.610Z,32.51
2023-05-06T17:07:12.252Z,32.94
2023-05-06T17:09:41.723Z,33.26
2023-05-06T17:12:10.140Z,33.53
2023-05-06T17:14:38.077Z,33.94
2023-05-06T17:17:06.053Z,34.31
2023-05-06T17:19:34.450Z,34.75
2023-05-06T17:22:02.453Z,34.88
2023-05-06T17:24:30.252Z,35.31
2023-05-06T17:26:59.444Z,35.50
2023-05-06T17:29:27.508Z,35.60
2023-05-06T17:31:55.372Z,36.32
2023-05-06T17:34:23.243Z,36.19
2023-05-06T17:36:51.224Z,36.24
2023-05-06T17:39:19.054Z,36.47
2023-05-06T17:41:46.872Z,37.09
2023-05-06T17:44:17.671Z,37.25
2023-05-06T17:46:46.530Z,38.17
2023-05-06T17:49:16.838Z,38.17
2023-05-06T17:51:46.352Z,38.00
2023-05-06T17:54:14.223Z,38.56
2023-05-06T17:56:49.305Z,38.52
2023-05-06T17:59:21.058Z,38.87
2023-05-06T18:01:49.189Z,38.79
2023-05-06T18:04:17.293Z,38.78
2023-05-06T18:06:45.721Z,39.06
2023-05-06T18:09:13.591Z,39.54
2023-05-06T18:11:41.625Z,39.39
2023-05-06T18:14:09.577Z,39.35
2023-05-06T18:16:39.058Z,40.47
2023-05-06T18:19:06.998Z,39.99
2023-05-06T18:21:36.030Z,40.23
2023-05-06T18:24:15.409Z,40.15
2023-05-06T18:26:46.214Z,40.45
2023-05-06T18:29:14.597Z,40.82
2023-05-06T18:31:43.896Z,41.23
2023-05-06T18:34:12.078Z,41.73
2023-05-06T18:36:40.093Z,42.17
2023-05-06T18:39:09.337Z,42.27
2023-05-06T18:41:37.333Z,41.83
2023-05-06T18:44:05.838Z,42.37
2023-05-06T18:46:33.759Z,42.36
2023-05-06T18:49:03.108Z,43.03
2023-05-06T18:51:32.068Z,43.50
2023-05-06T18:53:59.903Z,43.27
2023-05-06T18:56:28.066Z,43.72
2023-05-06T18:58:55.937Z,44.10
2023-05-06T19:01:25.052Z,44.00
2023-05-06T19:03:53.202Z,44.12
2023-05-06T19:06:22.509Z,44.94
2023-05-06T19:08:50.570Z,45.05
2023-05-06T19:11:19.486Z,44.50
2023-05-06T19:13:47.433Z,44.57
2023-05-06T19:16:15.342Z,45.18
2023-05-06T19:18:43.476Z,45.04
2023-05-06T19:21:11.926Z,45.23
2023-05-06T19:23:41.161Z,45.35
2023-05-06T19:26:11.038Z,45.92
2023-05-06T19:28:39.062Z,45.83
2023-05-06T19:31:09.434Z,46.04
2023-05-06T19:33:37.752Z,46.79
2023-05-06T19:36:06.672Z,47.09
2023-05-06T19:38:35.057Z,47.16
2023-05-06T19:41:04.445Z,47.34
2023-05-06T19:43:32.321Z,47.41
2023-05-06T19:46:00.200Z,47.64
2023-05-06T19:48:28.177Z,48.12
2023-05-06T19:50:56.014Z,48.16
2023-05-06T19:53:24.122Z,48.63
2023-05-06T19:55:52.757Z,48.71
2023-05-06T19:58:22.023Z,48.77
2023-05-06T20:00:49.961Z,48.88
2023-05-06T20:03:18.186Z,49.46
2023-05-06T20:05:46.140Z,50.15
2023-05-06T20:08:13.956Z,50.52
2023-05-06T20:10:41.961Z,50.57
2023-05-06T20:13:12.004Z,50.63
2023-05-06T20:15:41.571Z,50.64
2023-05-06T20:18:09.672Z,51.15
2023-05-06T20:20:37.993Z,51.23
2023-05-06T20:23:05.873Z,51.42
2023-05-06T20:25:34.151Z,51.79
2023-05-06T20:28:03.345Z,51.61
2023-05-06T20:30:31.316Z,51.86
2023-05-06T20:33:01.301Z,52.07
2023-05-06T20:35:29.201Z,51.94
2023-05-06T20:37:57.014Z,52.24
2023-05-06T20:40:25.111Z,52.57
2023-05-06T20:42:52.937Z,52.68
2023-05-06T20:45:21.128Z,52.79
2023-05-06T20:47:49.229Z,52.84
2023-05-06T20:50:18.745Z,52.96
2023-05-06T20:52:47.566Z,53.00
2023-05-06T20:55:16.068Z,53.29
2023-05-06T20:57:44.780Z,53.32
2023-05-06T21:00:14.593Z,53.51
2023-05-06T21:02:43.988Z,53.58
2023-05-06T21:05:12.224Z,53.48
2023-05-06T21:07:41.781Z,53.75
2023-05-06T21:10:11.662Z,53.93
2023-05-06T21:12:39.694Z,53.92
2023-05-06T21:15:09.085Z,53.87
2023-05-06T21:17:37.656Z,54.08
2023-05-06T21:20:06.445Z,54.40
2023-05-06T21:22:34.346Z,54.38
2023-05-06T21:25:05.361Z,54.45
2023-05-06T21:27:33.333Z,54.39
2023-05-06T21:30:01.151Z,54.48
2023-05-06T21:32:33.190Z,54.69
2023-05-06T21:35:04.992Z,55.02
2023-05-06T21:37:32.930Z,54.77
2023-05-06T21:40:04.317Z,55.23
2023-05-06T21:42:33.595Z,55.32
2023-05-06T21:45:01.524Z,55.58
2023-05-06T21:47:29.453Z,55.64
2023-05-06T21:49:57.389Z,55.51
2023-05-06T21:52:25.694Z,55.70
2023-05-06T21:54:53.775Z,55.73
2023-05-06T21:57:21.613Z,55.76
2023-05-06T21:59:52.106Z,55.69
2023-05-06T22:02:20.109Z,55.97
2023-05-06T22:04:48.057Z,55.70
2023-05-06T22:07:16.543Z,55.99
2023-05-06T22:09:44.508Z,55.81
2023-05-06T22:12:12.883Z,55.90
2023-05-06T22:14:41.703Z,56.16
2023-05-06T22:17:12.618Z,56.81
2023-05-06T22:19:41.861Z,56.75
2023-05-06T22:22:10.555Z,56.46
2023-05-06T22:24:38.459Z,56.61
2023-05-06T22:27:06.436Z,56.92
2023-05-06T22:29:35.056Z,57.34
2023-05-06T22:32:03.493Z,56.80
2023-05-06T22:34:32.904Z,57.23
2023-05-06T22:37:01.325Z,57.23
2023-05-06T22:39:29.721Z,57.13
2023-05-06T22:41:57.647Z,57.66
2023-05-06T22:44:25.765Z,57.85
2023-05-06T22:46:54.968Z,57.75
2023-05-06T22:49:23.592Z,58.13
2023-05-06T22:51:52.915Z,58.18
2023-05-06T22:54:20.920Z,58.02
2023-05-06T22:56:48.843Z,57.89
2023-05-06T22:59:17.018Z,58.04
2023-05-06T23:01:45.066Z,58.60
2023-05-06T23:04:13.322Z,58.59
2023-05-06T23:06:41.457Z,58.44
2023-05-06T23:09:11.550Z,59.16
2023-05-06T23:11:39.404Z,58.86
2023-05-06T23:14:08.213Z,59.43
2023-05-06T23:16:36.202Z,59.59
2023-05-06T23:19:04.178Z,59.23
2023-05-06T23:21:32.522Z,59.86
2023-05-06T23:24:01.016Z,59.51
2023-05-06T23:26:30.272Z,59.77
2023-05-06T23:28:58.224Z,60.18
2023-05-06T23:31:26.416Z,60.50
2023-05-06T23:33:54.285Z,60.38
2023-05-06T23:36:22.371Z,60.74
2023-05-06T23:38:50.251Z,61.08
2023-05-06T23:41:18.136Z,61.18
2023-05-06T23:43:47.383Z,60.96
2023-05-06T23:46:15.361Z,60.88
2023-05-06T23:48:43.251Z,61.03
2023-05-06T23:51:11.230Z,61.56
2023-05-06T23:53:39.196Z,61.67
2023-05-06T23:56:07.661Z,61.73
2023-05-06T23:58:35.602Z,61.29
